Latest Weather Observations for Cape Jaffa

IDS60801

Issued at 11:31 pm CDT Saturday 6 February 2016 (issued every 30 minutes, with the page automatically refreshed every 10 minutes)

About weather observations | Map of weather stations | Latest weather observations for SA | Other Formats
Station Details ID: 026095 Name: THE LIMESTONE Lat: -36.97 Lon: 139.72 Height: 17.0 m
Data from the previous 72 hours. | See also: Recent months at Cape Jaffa
Date/Time
CDT
Temp
°C
App
Temp
°C
Dew
Point
Rel
Hum
%
Delta-T
°C
Wind Press
QNH
hPa
Press
MSL
hPa
Rain
since 9 am
mm
Dir
 
Spd
km/h
Gust
km/h
Spd
kts
Gust
kts
06/11:30pm 16.2 13.6 14.9 92 0.7 S 22 26 12 14 1015.8 1015.7 0.0
06/11:00pm 16.3 13.7 15.0 92 0.7 SSW 22 28 12 15 1015.8 1015.7 0.0
06/10:30pm 16.5 14.3 14.9 90 0.9 SSW 20 26 11 14 1015.8 1015.7 0.0
06/10:00pm 16.8 15.1 14.8 88 1.2 SSW 17 20 9 11 1015.5 1015.4 0.0
06/09:30pm 17.4 16.2 15.0 86 1.4 S 15 19 8 10 1015.2 1015.1 0.0
06/09:00pm 17.4 15.8 15.0 86 1.4 S 17 22 9 12 1015.0 1014.9 0.0
06/08:30pm 17.4 14.9 15.2 87 1.3 S 22 26 12 14 1014.6 1014.5 0.0
06/08:00pm 17.8 14.6 15.4 86 1.4 SSW 26 33 14 18 1014.4 1014.3 0.0
06/07:30pm 18.5 14.7 15.7 84 1.7 SSW 30 39 16 21 1014.0 1013.9 0.0
06/07:00pm 19.2 15.0 16.1 82 1.8 SSW 33 39 18 21 1013.9 1013.8 0.0
06/06:30pm 19.7 15.4 16.0 79 2.2 SSW 33 43 18 23 1013.7 1013.6 0.0
06/06:00pm 20.1 15.6 15.5 75 2.7 SSW 33 43 18 23 1013.6 1013.5 0.0
06/05:30pm 20.8 16.7 14.9 69 3.5 SSW 30 35 16 19 1013.7 1013.6 0.0
06/05:00pm 21.3 17.6 14.9 67 3.8 SSW 28 35 15 19 1013.9 1013.8 0.0
06/04:30pm 22.8 19.3 14.6 60 4.8 SSW 26 32 14 17 1014.0 1013.9 0.0
06/04:00pm 23.9 21.3 13.7 53 6.0 SSW 20 24 11 13 1014.0 1013.9 0.0
06/03:30pm 25.6 23.9 14.7 51 6.5 SW 17 22 9 12 1014.3 1014.2 0.0
06/03:00pm 25.0 22.3 13.5 48 6.7 SW 20 24 11 13 1014.5 1014.4 0.0
06/02:30pm 25.9 23.8 13.7 47 7.2 WSW 17 20 9 11 1014.7 1014.6 0.0
06/02:00pm 26.1 23.9 13.2 44 7.6 W 17 22 9 12 1014.9 1014.8 0.0
06/01:30pm 26.0 24.6 12.1 42 8.0 W 11 15 6 8 1015.0 1014.9 0.0
06/01:00pm 26.4 25.2 12.8 43 7.9 W 11 19 6 10 1015.2 1015.1 0.0
06/12:30pm 26.3 25.1 12.7 43 7.9 WNW 11 19 6 10 1015.5 1015.4 0.0
06/12:00pm 26.3 25.7 13.4 45 7.6 WNW 9 15 5 8 1015.8 1015.7 0.0
06/11:30am 23.6 23.8 14.6 57 5.3 WSW 7 9 4 5 1016.1 1016.0 0.0
06/11:00am 22.0 21.2 15.1 65 4.1 SSW 13 17 7 9 1016.3 1016.2 0.0
06/10:30am 21.6 20.5 15.4 68 3.7 SSW 15 17 8 9 1016.3 1016.2 0.0
06/10:00am 20.1 19.0 15.3 74 2.8 SSW 15 19 8 10 1016.3 1016.2 0.0
06/09:30am 18.8 17.5 14.7 77 2.4 SSW 15 19 8 10 1016.5 1016.4 0.0
06/09:00am 20.3 21.1 14.9 71 3.2 ESE 4 7 2 4 1016.2 1016.1 0.0
06/08:30am 17.7 18.4 15.5 87 1.3 SSE 6 9 3 5 1016.0 1015.9 0.0
06/08:00am 16.4 16.3 14.9 91 0.9 S 9 9 5 5 1015.7 1015.6 0.0
06/07:30am 15.2 14.7 13.9 92 0.7 S 9 9 5 5 1015.3 1015.2 0.0
06/07:00am 14.2 13.4 12.8 91 0.8 SSE 9 11 5 6 1015.1 1015.0 0.0
06/06:30am 14.3 13.5 13.0 92 0.7 SSE 9 13 5 7 1014.9 1014.8 0.0
06/06:00am 13.5 12.4 12.1 91 0.8 S 9 11 5 6 1014.8 1014.7 0.0
06/05:30am 14.3 14.5 12.9 91 0.8 SSE 4 6 2 3 1014.7 1014.6 0.0
06/05:00am 14.6 14.2 13.1 91 0.8 SE 7 11 4 6 1014.4 1014.3 0.0
06/04:30am 14.8 14.5 13.3 91 0.8 SSE 7 9 4 5 1014.5 1014.4 0.0
06/04:00am 15.0 14.4 13.5 91 0.8 SSE 9 13 5 7 1014.7 1014.6 0.0
06/03:30am 15.1 14.2 13.6 91 0.8 SSE 11 17 6 9 1014.7 1014.6 0.0
06/03:00am 14.9 13.6 13.6 92 0.7 SSE 13 17 7 9 1015.0 1014.9 0.0
06/02:30am 15.0 13.3 13.7 92 0.7 SSE 15 19 8 10 1015.2 1015.1 0.0
06/02:00am 15.4 13.5 14.1 92 0.7 S 17 24 9 13 1015.5 1015.4 0.0
06/01:30am 15.4 13.9 14.1 92 0.7 S 15 22 8 12 1015.8 1015.7 0.0
06/01:00am 15.5 12.6 14.0 91 0.8 S 22 26 12 14 1016.1 1016.0 0.0
06/12:30am 15.4 13.0 13.9 91 0.8 S 19 20 10 11 1016.3 1016.2 0.0
06/12:00am 15.6 13.3 14.0 90 0.9 SSW 19 24 10 13 1016.6 1016.5 0.0
 
Date/Time
CDT
Temp
°C
App
Temp
°C
Dew
Point
Rel
Hum
%
Delta-T
°C
Wind Press
QNH
hPa
Press
MSL
hPa
Rain
since 9 am
mm
Dir
 
Spd
km/h
Gust
km/h
Spd
kts
Gust
kts
05/11:30pm 16.4 14.1 14.2 87 1.3 S 19 24 10 13 1016.9 1016.8 0.0
05/11:00pm 16.6 14.1 14.1 85 1.4 S 20 24 11 13 1016.9 1016.8 0.0
05/10:30pm 16.6 15.0 13.9 84 1.5 S 15 19 8 10 1017.2 1017.1 0.0
05/10:00pm 17.1 15.8 13.8 81 1.9 SSE 13 20 7 11 1017.0 1016.9 0.0
05/09:30pm 17.6 14.7 14.1 80 2.0 SSE 22 32 12 17 1016.8 1016.7 0.0
05/09:00pm 17.4 13.8 14.1 81 1.9 S 26 33 14 18 1016.6 1016.5 0.0
05/08:30pm 17.3 12.8 13.8 80 2.0 S 30 35 16 19 1016.4 1016.3 0.0
05/08:00pm 18.5 14.0 13.8 74 2.7 S 30 35 16 19 1016.2 1016.1 0.0
05/07:30pm 19.5 15.0 13.7 69 3.3 S 30 37 16 20 1015.9 1015.8 0.0
05/07:00pm 19.6 14.7 13.8 69 3.3 S 32 39 17 21 1015.8 1015.7 0.0
05/06:30pm 19.9 14.4 13.6 67 3.6 S 35 43 19 23 1015.6 1015.5 0.0
05/06:00pm 20.2 14.2 13.4 65 3.9 S 37 44 20 24 1015.5 1015.4 0.0
05/05:30pm 20.5 14.1 13.2 63 4.2 S 39 46 21 25 1015.8 1015.7 0.0
05/05:00pm 20.9 14.6 13.4 62 4.3 SSW 39 46 21 25 1015.9 1015.8 0.0
05/04:30pm 21.3 15.0 13.5 61 4.5 S 39 48 21 26 1016.1 1016.0 0.0
05/04:00pm 20.7 13.5 13.2 62 4.3 S 43 48 23 26 1016.3 1016.2 0.0
05/03:30pm 20.4 13.1 12.9 62 4.2 SSW 43 50 23 27 1016.6 1016.5 0.0
05/03:00pm 20.5 13.6 12.7 61 4.4 SSW 41 46 22 25 1017.0 1016.9 0.0
05/02:30pm 20.6 14.0 12.6 60 4.5 SSW 39 46 21 25 1017.3 1017.2 0.0
05/02:00pm 20.5 13.5 12.5 60 4.5 SSW 41 46 22 25 1017.6 1017.5 0.0
05/01:30pm 20.9 15.0 12.3 58 4.8 S 35 43 19 23 1018.1 1018.0 0.0
05/01:00pm 20.1 14.1 12.1 60 4.5 SSW 35 43 19 23 1018.5 1018.4 0.0
05/12:30pm 20.6 15.8 12.8 61 4.4 SSW 30 37 16 20 1018.9 1018.8 0.0
05/12:00pm 20.8 16.6 12.5 59 4.7 SSW 26 32 14 17 1019.0 1018.9 0.0
05/11:30am 21.9 20.2 9.8 46 6.5 SE 9 17 5 9 1019.5 1019.4 0.0
05/11:00am 21.0 18.6 9.9 49 6.0 ESE 13 22 7 12 1019.9 1019.8 0.0
05/10:30am 20.5 17.3 10.0 51 5.6 SE 17 28 9 15 1020.2 1020.1 0.0
05/10:00am 18.9 14.8 10.2 57 4.7 SE 22 32 12 17 1020.4 1020.3 0.0
05/09:30am 17.8 13.3 10.2 61 4.0 SE 24 33 13 18 1020.5 1020.4 0.0
05/09:00am 16.9 12.5 10.3 65 3.5 SE 24 33 13 18 1020.7 1020.6 0.0
05/08:30am 16.1 12.0 10.0 67 3.2 SE 22 33 12 18 1020.5 1020.4 0.0
05/08:00am 14.8 11.6 10.0 73 2.5 SSE 17 26 9 14 1020.5 1020.4 0.0
05/07:30am 13.1 10.5 9.5 79 1.8 SSE 13 20 7 11 1020.6 1020.5 0.0
05/07:00am 12.2 9.5 9.0 81 1.6 SSE 13 17 7 9 1020.4 1020.3 0.0
05/06:30am 12.3 9.6 9.0 80 1.6 SSE 13 19 7 10 1020.0 1019.9 0.0
05/06:00am 12.7 9.7 9.2 79 1.8 SSE 15 22 8 12 1019.8 1019.7 0.0
05/05:30am 12.7 9.3 9.3 80 1.7 SSE 17 24 9 13 1019.6 1019.5 0.0
05/05:00am 12.6 9.6 9.2 80 1.7 SSE 15 20 8 11 1019.4 1019.3 0.0
05/04:30am 12.6 9.2 9.2 80 1.7 SSE 17 24 9 13 1019.3 1019.2 0.0
05/04:00am 12.4 9.4 9.1 80 1.7 SSE 15 20 8 11 1019.4 1019.3 0.0
05/03:30am 12.6 8.8 9.2 80 1.7 SSE 19 26 10 14 1019.3 1019.2 0.0
05/03:00am 12.8 8.9 9.3 79 1.8 SSE 20 32 11 17 1019.4 1019.3 0.0
05/02:30am 12.1 8.2 9.3 83 1.4 S 20 24 11 13 1019.5 1019.4 0.0
05/02:00am 12.3 9.7 9.3 82 1.5 SSE 13 17 7 9 1020.0 1019.9 0.0
05/01:30am 12.6 9.6 9.2 80 1.7 SSE 15 20 8 11 1020.1 1020.0 0.0
05/01:00am 12.7 9.7 9.2 79 1.8 SSE 15 19 8 10 1020.4 1020.3 0.0
05/12:30am 13.1 9.8 9.4 78 1.9 SSE 17 22 9 12 1020.6 1020.5 0.0
05/12:00am 13.4 10.1 9.5 77 2.0 SSE 17 24 9 13 1020.7 1020.6 0.0
 
Date/Time
CDT
Temp
°C
App
Temp
°C
Dew
Point
Rel
Hum
%
Delta-T
°C
Wind Press
QNH
hPa
Press
MSL
hPa
Rain
since 9 am
mm
Dir
 
Spd
km/h
Gust
km/h
Spd
kts
Gust
kts
04/11:30pm 13.7 10.0 9.6 76 2.1 SSE 19 24 10 13 1020.8 1020.7 0.0
04/11:00pm 14.1 10.4 9.5 74 2.4 SSE 19 26 10 14 1020.9 1020.8 0.0
04/10:30pm 14.3 10.8 10.1 76 2.2 SSE 19 26 10 14 1021.1 1021.0 0.0
04/10:00pm 14.8 10.7 10.2 74 2.4 SSE 22 30 12 16 1021.0 1020.9 0.0
04/09:30pm 15.1 9.9 10.3 73 2.5 SSE 28 37 15 20 1020.7 1020.6 0.0
04/09:00pm 15.5 9.0 10.5 72 2.6 S 35 46 19 25 1020.2 1020.1 0.0
04/08:30pm 15.9 8.4 10.7 71 2.8 S 41 48 22 26 1020.0 1019.9 0.0
04/08:00pm 16.5 9.3 10.6 68 3.1 S 39 48 21 26 1019.9 1019.8 0.0
04/07:30pm 17.3 9.8 10.7 65 3.5 S 41 50 22 27 1019.4 1019.3 0.0
04/07:00pm 17.9 10.8 11.0 64 3.7 S 39 52 21 28 1019.2 1019.1 0.0
04/06:30pm 18.8 11.9 11.6 63 3.9 S 39 50 21 27 1019.2 1019.1 0.0
04/06:00pm 18.8 11.1 11.6 63 3.9 S 43 54 23 29 1019.0 1018.9 0.0
04/05:30pm 19.3 11.9 11.1 59 4.5 S 41 52 22 28 1019.0 1018.9 0.0
04/05:00pm 19.6 11.7 10.9 57 4.7 S 43 52 23 28 1019.1 1019.0 0.0
04/04:30pm 20.0 12.1 10.7 55 5.0 S 43 54 23 29 1019.4 1019.3 0.0
04/04:00pm 19.4 10.8 10.4 56 4.9 S 46 59 25 32 1019.6 1019.5 0.0
04/03:30pm 19.6 11.0 11.6 60 4.4 S 48 61 26 33 1019.7 1019.6 0.0
04/03:00pm 20.0 11.9 10.7 55 5.0 SSW 44 54 24 29 1019.8 1019.7 0.0
04/02:30pm 19.6 10.7 10.6 56 4.9 S 48 57 26 31 1020.0 1019.9 0.0
04/02:00pm 20.0 11.8 11.8 59 4.6 SSW 46 57 25 31 1020.3 1020.2 0.0
04/01:30pm 19.7 11.6 10.9 57 4.8 SSW 44 56 24 30 1020.6 1020.5 0.0
04/01:00pm 19.9 11.8 10.9 56 4.9 S 44 54 24 29 1020.8 1020.7 0.0
04/12:30pm 20.3 12.8 10.7 54 5.2 SSW 41 54 22 29 1021.1 1021.0 0.0
04/12:00pm 19.6 11.5 10.0 54 5.1 S 43 52 23 28 1021.2 1021.1 0.0
04/11:30am 19.4 11.5 10.7 57 4.7 S 43 56 23 30 1021.5 1021.4 0.0
04/11:00am 19.0 12.1 10.3 57 4.7 S 37 43 20 23 1021.6 1021.5 0.0
04/10:30am 18.8 12.0 9.3 54 5.0 S 35 46 19 25 1021.6 1021.5 0.0
04/10:00am 18.8 12.7 9.6 55 4.9 S 32 39 17 21 1021.7 1021.6 0.0
04/09:30am 17.8 12.5 11.1 65 3.6 S 30 39 16 21 1021.5 1021.4 0.0
04/09:00am 17.8 11.1 9.7 59 4.3 S 35 48 19 26 1021.4 1021.3 0.0
04/08:30am 16.9 11.1 9.6 62 3.8 S 30 39 16 21 1021.3 1021.2 0.0
04/08:00am 16.6 11.3 9.8 64 3.6 S 28 41 15 22 1021.1 1021.0 0.0
04/07:30am 16.0 11.1 9.9 67 3.2 S 26 33 14 18 1020.8 1020.7 0.0
04/07:00am 15.8 10.8 9.7 67 3.2 S 26 37 14 20 1020.5 1020.4 0.0
04/06:30am 15.1 11.8 9.5 69 2.9 SSE 17 24 9 13 1020.4 1020.3 0.0
04/06:00am 15.6 11.8 9.9 69 3.0 S 20 26 11 14 1020.0 1019.9 0.0
04/05:30am 15.8 10.7 9.2 65 3.4 SSE 26 35 14 19 1019.7 1019.6 0.0
04/05:00am 15.8 11.8 10.3 70 2.9 S 22 30 12 16 1019.2 1019.1 0.0
04/04:30am 16.0 12.6 10.5 70 2.9 SSE 19 22 10 12 1018.9 1018.8 0.0
04/04:00am 15.9 12.5 10.7 71 2.8 S 19 26 10 14 1018.8 1018.7 0.0
04/03:30am 15.1 11.9 9.9 71 2.7 SSE 17 22 9 12 1018.7 1018.6 0.0
04/03:00am 14.7 11.8 9.5 71 2.7 SSE 15 20 8 11 1018.8 1018.7 0.0
04/02:30am 15.4 11.7 9.5 68 3.0 SSE 19 24 10 13 1018.7 1018.6 0.0
04/02:00am 15.8 11.5 9.2 65 3.4 SSE 22 32 12 17 1018.7 1018.6 0.0
04/01:30am 15.9 10.8 9.3 65 3.4 SSE 26 35 14 19 1018.9 1018.8 0.0
04/01:00am 16.2 11.8 10.5 69 3.0 S 24 32 13 17 1018.8 1018.7 0.0
04/12:30am 16.5 12.4 10.1 66 3.4 SSE 22 30 12 16 1018.8 1018.7 0.0
04/12:00am 16.6 12.7 10.9 69 3.0 SSE 22 30 12 16 1018.9 1018.8 0.0

Other Formats:

Comma delimited format used in spreadsheet applications
http://www.bom.gov.au/fwo/IDS60801/IDS60801.94813.axf

JavaScript Object Notation format (JSON) in row-major order
http://www.bom.gov.au/fwo/IDS60801/IDS60801.94813.json